Terminal Aerodrome Forecast
Issued by NWS Duluth, MN

Home | Current Version | Previous Version | Text Only | Print | Product List | Glossary On
Versions: 1 2 3 4 5 6 7 8 9 10 11 12 13 14 15 16 17 18 19 20 21 22 23 24 25 26 27
000
FTUS43 KDLH 281200 AAA
TAFINL
TAF AMD
KINL 281247Z 2813/2912 VRB03KT 3/4SM BR VV002
     FM281400 17006KT P6SM BKN040
     FM281700 19008G12KT P6SM SCT045
      TEMPO 2817/2820 BKN045
     FM290100 17004KT P6SM SCT050 BKN200
     FM290800 15004KT P6SM BKN070=

USA.gov is the U.S. government's official web portal to all federal, state and local government web resources and services.